createdAt,value
2019-05-13T00:02:04.902Z,7.10
2019-05-13T00:04:36.114Z,7.20
2019-05-13T00:07:07.122Z,7.20
2019-05-13T00:09:38.383Z,7.20
2019-05-13T00:12:09.954Z,7.20
2019-05-13T00:14:43.387Z,7.00
2019-05-13T00:17:14.836Z,6.80
2019-05-13T00:19:46.374Z,6.60
2019-05-13T00:22:20.623Z,6.60
2019-05-13T00:24:54.133Z,6.70
2019-05-13T00:27:25.184Z,6.70
2019-05-13T00:29:56.535Z,6.70
2019-05-13T00:32:27.530Z,6.70
2019-05-13T00:34:58.955Z,6.70
2019-05-13T00:37:29.659Z,6.70
2019-05-13T00:40:00.840Z,6.70
2019-05-13T00:42:33.448Z,6.70
2019-05-13T00:45:05.558Z,6.80
2019-05-13T00:47:36.846Z,6.80
2019-05-13T00:50:08.851Z,6.80
2019-05-13T00:52:40.427Z,6.70
2019-05-13T00:55:14.499Z,6.60
2019-05-13T00:57:45.694Z,6.60
2019-05-13T01:00:17.222Z,6.60
2019-05-13T01:02:49.052Z,6.50
2019-05-13T01:05:20.219Z,6.40
2019-05-13T01:07:53.642Z,6.40
2019-05-13T01:10:25.288Z,6.30
2019-05-13T01:12:56.525Z,6.30
2019-05-13T01:15:28.049Z,6.30
2019-05-13T01:17:59.642Z,6.30
2019-05-13T01:20:31.270Z,6.20
2019-05-13T01:23:03.952Z,6.30
2019-05-13T01:25:35.200Z,6.20
2019-05-13T01:28:06.505Z,6.20
2019-05-13T01:30:37.770Z,6.20
2019-05-13T01:33:09.648Z,6.20
2019-05-13T01:35:41.176Z,6.30
2019-05-13T01:38:13.510Z,6.20
2019-05-13T01:40:45.569Z,6.10
2019-05-13T01:43:16.839Z,6.00
2019-05-13T01:45:47.815Z,6.00
2019-05-13T01:48:19.138Z,5.90
2019-05-13T01:50:53.202Z,5.90
2019-05-13T01:53:24.495Z,5.90
2019-05-13T01:55:56.292Z,5.80
2019-05-13T01:58:27.566Z,5.80
2019-05-13T02:00:59.408Z,5.80
2019-05-13T02:03:30.659Z,5.70
2019-05-13T02:06:03.760Z,5.70
2019-05-13T02:08:34.304Z,5.70
2019-05-13T02:11:05.458Z,5.60
2019-05-13T02:13:36.744Z,5.60
2019-05-13T02:16:07.676Z,5.60
2019-05-13T02:18:38.877Z,5.50
2019-05-13T02:21:09.851Z,5.40
2019-05-13T02:23:41.404Z,5.30
2019-05-13T02:26:13.561Z,5.40
2019-05-13T02:28:44.712Z,5.30
2019-05-13T02:31:22.986Z,5.20
2019-05-13T02:33:48.991Z,5.10
2019-05-13T02:36:22.871Z,5.10
2019-05-13T02:38:54.104Z,5.20
2019-05-13T02:41:25.966Z,5.10
2019-05-13T02:43:57.539Z,5.00
2019-05-13T02:46:29.177Z,4.90
2019-05-13T02:49:03.089Z,4.90
2019-05-13T02:51:33.114Z,5.00
2019-05-13T02:54:04.634Z,5.00
2019-05-13T02:56:36.064Z,4.80
2019-05-13T02:59:07.246Z,4.80
2019-05-13T03:01:39.486Z,4.80
2019-05-13T03:04:13.137Z,4.80
2019-05-13T03:06:44.240Z,4.80
2019-05-13T03:09:16.364Z,4.80
2019-05-13T03:11:47.636Z,5.00
2019-05-13T03:14:18.891Z,4.90
2019-05-13T03:16:56.070Z,4.70
2019-05-13T03:19:27.001Z,4.70
2019-05-13T03:21:58.681Z,4.60
2019-05-13T03:24:32.970Z,4.50
2019-05-13T03:27:03.035Z,4.50
2019-05-13T03:29:34.263Z,4.50
2019-05-13T03:32:07.437Z,4.50
2019-05-13T03:34:38.532Z,4.40
2019-05-13T03:37:15.526Z,4.40
2019-05-13T03:39:45.279Z,4.50
2019-05-13T03:42:16.580Z,4.40
2019-05-13T03:44:52.306Z,4.40
2019-05-13T03:47:25.246Z,4.30
2019-05-13T03:50:03.532Z,4.30
2019-05-13T03:52:34.284Z,4.30
2019-05-13T03:55:06.269Z,4.30
2019-05-13T03:57:37.992Z,4.30
2019-05-13T04:00:12.827Z,4.20
2019-05-13T04:02:43.185Z,4.10
2019-05-13T04:05:16.739Z,4.10
2019-05-13T04:07:48.249Z,4.00
2019-05-13T04:10:23.061Z,4.00
2019-05-13T04:12:53.225Z,4.10
2019-05-13T04:15:25.089Z,4.20
2019-05-13T04:17:56.366Z,4.20
2019-05-13T04:20:27.344Z,4.30
2019-05-13T04:23:02.644Z,4.30
2019-05-13T04:25:32.361Z,4.40
2019-05-13T04:28:03.834Z,4.40
2019-05-13T04:30:34.817Z,4.40
2019-05-13T04:33:05.924Z,4.50
2019-05-13T04:35:37.171Z,4.50
2019-05-13T04:38:12.413Z,4.50
2019-05-13T04:40:42.766Z,4.60
2019-05-13T04:43:15.098Z,4.70
2019-05-13T04:45:46.077Z,4.70
2019-05-13T04:48:17.434Z,4.70
2019-05-13T04:50:49.056Z,4.70
2019-05-13T04:53:22.741Z,4.80
2019-05-13T04:55:54.275Z,4.90
2019-05-13T04:58:25.575Z,5.00
2019-05-13T05:01:57.813Z,5.10
2019-05-13T05:04:46.350Z,5.10
2019-05-13T05:08:02.918Z,5.30
2019-05-13T05:11:22.260Z,5.40
2019-05-13T05:14:14.817Z,5.40
2019-05-13T05:17:44.459Z,5.50
2019-05-13T05:20:32.188Z,5.70
2019-05-13T05:23:42.305Z,5.80
2019-05-13T05:27:15.297Z,5.80
2019-05-13T05:30:27.019Z,5.90
2019-05-13T05:33:54.872Z,5.90
2019-05-13T05:37:24.528Z,6.00
2019-05-13T05:40:01.915Z,6.10
2019-05-13T05:42:36.924Z,6.30
2019-05-13T05:45:08.650Z,6.40
2019-05-13T05:47:41.978Z,6.30
2019-05-13T05:50:12.936Z,6.40
2019-05-13T05:52:48.534Z,6.70
2019-05-13T05:55:21.348Z,6.70
2019-05-13T05:57:54.611Z,6.60
2019-05-13T06:00:26.437Z,6.80
2019-05-13T06:03:02.451Z,6.90
2019-05-13T06:05:34.669Z,7.00
2019-05-13T06:08:08.355Z,7.00
2019-05-13T06:10:49.135Z,7.00
2019-05-13T06:13:15.663Z,7.00
2019-05-13T06:15:51.383Z,7.20
2019-05-13T06:18:23.037Z,7.20
2019-05-13T06:20:56.068Z,7.20
2019-05-13T06:23:28.460Z,7.30
2019-05-13T06:26:01.928Z,7.30
2019-05-13T06:28:34.011Z,7.50
2019-05-13T06:31:05.932Z,7.50
2019-05-13T06:33:37.425Z,7.60
2019-05-13T06:36:11.250Z,7.60
2019-05-13T06:38:42.508Z,7.80
2019-05-13T06:41:14.836Z,8.00
2019-05-13T06:43:46.460Z,8.10
2019-05-13T06:46:18.115Z,8.20
2019-05-13T06:48:51.921Z,8.20
2019-05-13T06:51:23.494Z,8.20
2019-05-13T06:53:54.516Z,8.40
2019-05-13T06:56:26.253Z,8.50
2019-05-13T06:58:57.675Z,8.60
2019-05-13T07:01:29.257Z,8.70
2019-05-13T07:04:02.346Z,8.90
2019-05-13T07:06:33.796Z,8.90
2019-05-13T07:09:07.768Z,8.90
2019-05-13T07:11:41.472Z,9.00
2019-05-13T07:14:12.649Z,9.10
2019-05-13T07:16:44.635Z,9.10
2019-05-13T07:19:15.913Z,9.30
2019-05-13T07:21:47.794Z,9.30
2019-05-13T07:24:21.264Z,9.40
2019-05-13T07:26:52.559Z,9.60
2019-05-13T07:29:24.275Z,9.70
2019-05-13T07:31:55.519Z,9.80
2019-05-13T07:34:26.965Z,9.90
2019-05-13T07:36:58.229Z,9.90
2019-05-13T07:39:32.387Z,10.00
2019-05-13T07:42:05.267Z,10.00
2019-05-13T07:44:35.822Z,10.30
2019-05-13T07:47:07.827Z,10.40
2019-05-13T07:49:38.840Z,10.50
2019-05-13T07:52:11.698Z,10.80
2019-05-13T07:54:43.011Z,10.80
2019-05-13T07:57:14.006Z,10.90
2019-05-13T07:59:45.638Z,10.90
2019-05-13T08:02:16.732Z,11.10
2019-05-13T08:04:49.500Z,11.10
2019-05-13T08:07:22.798Z,11.10
2019-05-13T08:09:56.855Z,11.10
2019-05-13T08:12:27.623Z,11.20
2019-05-13T08:14:59.260Z,11.40
2019-05-13T08:17:32.746Z,11.50
2019-05-13T08:20:04.638Z,11.50
2019-05-13T08:22:36.006Z,11.50
2019-05-13T08:25:07.391Z,11.70
2019-05-13T08:27:41.986Z,11.70
2019-05-13T08:30:12.973Z,11.90
2019-05-13T08:32:44.436Z,12.10
2019-05-13T08:35:16.396Z,12.20
2019-05-13T08:37:47.669Z,12.30
2019-05-13T08:40:23.181Z,12.40
2019-05-13T08:42:53.145Z,12.50
2019-05-13T08:45:24.734Z,12.60
2019-05-13T08:47:56.021Z,12.70
2019-05-13T08:50:28.146Z,12.70
2019-05-13T08:53:01.815Z,12.80
2019-05-13T08:55:33.607Z,12.90
2019-05-13T08:58:05.504Z,12.90
2019-05-13T09:00:58.811Z,12.90
2019-05-13T09:03:28.340Z,13.00
2019-05-13T09:06:21.950Z,13.00
2019-05-13T09:08:55.753Z,13.20
2019-05-13T09:11:27.357Z,13.40
2019-05-13T09:13:59.168Z,13.40
2019-05-13T09:16:31.991Z,13.60
2019-05-13T09:19:15.716Z,13.70
2019-05-13T09:21:58.661Z,14.00
2019-05-13T09:24:37.507Z,14.10
2019-05-13T09:27:08.019Z,14.00
2019-05-13T09:29:42.765Z,14.20
2019-05-13T09:32:14.958Z,14.00
2019-05-13T09:34:46.596Z,13.80
2019-05-13T09:37:17.195Z,14.00
2019-05-13T09:39:51.734Z,14.40
2019-05-13T09:42:23.121Z,14.60
2019-05-13T09:44:55.152Z,14.50
2019-05-13T09:47:28.313Z,14.60
2019-05-13T09:49:59.525Z,14.60
2019-05-13T09:52:31.920Z,14.90
2019-05-13T09:55:03.396Z,15.20
2019-05-13T09:57:34.990Z,15.30
2019-05-13T10:00:07.717Z,15.40
2019-05-13T10:02:39.009Z,15.50
2019-05-13T10:05:11.618Z,15.80
2019-05-13T10:07:43.719Z,16.10
2019-05-13T10:10:15.883Z,16.30
2019-05-13T10:13:07.292Z,17.20
2019-05-13T10:15:22.136Z,18.00
2019-05-13T10:17:53.240Z,18.10
2019-05-13T10:20:45.030Z,18.50
2019-05-13T10:23:16.629Z,18.40
2019-05-13T10:25:52.241Z,18.90
2019-05-13T10:28:24.034Z,18.80
2019-05-13T10:30:56.325Z,18.90
2019-05-13T10:33:27.471Z,19.50
2019-05-13T10:35:59.308Z,19.30
2019-05-13T10:38:32.405Z,19.50
2019-05-13T10:41:03.931Z,19.00
2019-05-13T10:43:40.220Z,19.70
2019-05-13T10:46:13.001Z,19.80
2019-05-13T10:48:45.243Z,20.20
2019-05-13T10:51:16.594Z,19.70
2019-05-13T10:53:47.578Z,20.00
2019-05-13T10:56:19.561Z,20.20
2019-05-13T10:58:53.488Z,20.00
2019-05-13T11:01:24.320Z,20.40
2019-05-13T11:03:55.648Z,19.80
2019-05-13T11:06:27.511Z,19.70
2019-05-13T11:08:58.832Z,19.70
2019-05-13T11:11:32.974Z,20.20
2019-05-13T11:14:10.985Z,20.10
2019-05-13T11:16:36.795Z,20.20
2019-05-13T11:19:08.207Z,20.10
2019-05-13T11:21:39.609Z,20.60
2019-05-13T11:24:12.741Z,20.60
2019-05-13T11:26:43.789Z,20.70
2019-05-13T11:29:15.670Z,20.80
2019-05-13T11:31:47.277Z,20.40
2019-05-13T11:34:18.477Z,19.80
2019-05-13T11:36:52.855Z,20.40
2019-05-13T11:39:22.865Z,19.90
2019-05-13T11:41:54.558Z,19.90
2019-05-13T11:44:26.379Z,20.40
2019-05-13T11:46:57.104Z,21.20
2019-05-13T11:49:31.422Z,21.50
2019-05-13T11:52:02.820Z,21.70
2019-05-13T11:54:34.561Z,21.40
2019-05-13T11:57:06.631Z,21.60
2019-05-13T11:59:42.382Z,21.40
2019-05-13T12:02:13.668Z,21.40
2019-05-13T12:04:45.972Z,21.50
2019-05-13T12:07:17.801Z,21.60
2019-05-13T12:09:51.298Z,21.10
2019-05-13T12:12:23.473Z,21.10
2019-05-13T12:15:22.218Z,20.80
2019-05-13T12:17:28.557Z,21.00
2019-05-13T12:20:02.301Z,21.10
2019-05-13T12:22:33.007Z,21.30
2019-05-13T12:25:04.755Z,21.20
2019-05-13T12:27:36.275Z,21.50
2019-05-13T12:30:07.593Z,21.80
2019-05-13T12:32:43.501Z,21.40
2019-05-13T12:35:13.474Z,21.30
2019-05-13T12:37:45.306Z,21.80
2019-05-13T12:40:16.482Z,22.20
2019-05-13T12:42:48.016Z,22.00
2019-05-13T12:45:22.410Z,22.00
2019-05-13T12:47:53.815Z,21.60
2019-05-13T12:50:25.690Z,21.50
2019-05-13T12:52:56.932Z,21.70
2019-05-13T12:55:28.281Z,21.80
2019-05-13T12:58:02.652Z,21.80
2019-05-13T13:00:33.123Z,21.70
2019-05-13T13:03:04.999Z,21.70
2019-05-13T13:05:37.328Z,21.80
2019-05-13T13:08:23.984Z,22.00
2019-05-13T13:10:42.333Z,21.50
2019-05-13T13:13:13.855Z,20.80
2019-05-13T13:15:48.528Z,21.50
2019-05-13T13:18:18.872Z,21.80
2019-05-13T13:20:57.869Z,21.30
2019-05-13T13:23:23.769Z,21.80
2019-05-13T13:25:57.210Z,21.90
2019-05-13T13:28:28.748Z,21.80
2019-05-13T13:31:04.322Z,21.50
2019-05-13T13:33:34.424Z,21.70
2019-05-13T13:36:06.242Z,22.10
2019-05-13T13:38:37.760Z,22.60
2019-05-13T13:41:09.000Z,23.00
2019-05-13T13:43:42.048Z,22.90
2019-05-13T13:46:32.358Z,22.80
2019-05-13T13:48:47.298Z,23.10
2019-05-13T13:51:18.586Z,22.40
2019-05-13T13:53:56.104Z,22.50
2019-05-13T13:56:25.364Z,21.90
2019-05-13T13:58:56.263Z,22.50
2019-05-13T14:01:27.933Z,23.00
2019-05-13T14:04:03.695Z,22.70
2019-05-13T14:07:22.216Z,22.40
2019-05-13T14:09:07.805Z,22.90
2019-05-13T14:11:41.914Z,22.80
2019-05-13T14:14:13.429Z,22.60
2019-05-13T14:16:46.738Z,22.00
2019-05-13T14:19:18.432Z,22.60
2019-05-13T14:21:52.522Z,22.50
2019-05-13T14:24:23.758Z,22.30
2019-05-13T14:26:55.991Z,22.70
2019-05-13T14:29:38.638Z,23.10
2019-05-13T14:32:01.424Z,22.60
2019-05-13T14:34:33.045Z,22.90
2019-05-13T14:37:04.099Z,22.50
2019-05-13T14:39:36.289Z,22.70
2019-05-13T14:42:08.277Z,22.40
2019-05-13T14:44:39.651Z,22.10
2019-05-13T14:47:12.504Z,21.50
2019-05-13T14:49:44.311Z,21.90
2019-05-13T14:52:16.155Z,22.00
2019-05-13T14:54:47.936Z,22.30
2019-05-13T14:57:21.746Z,21.90
2019-05-13T14:59:53.154Z,21.90
2019-05-13T15:02:25.672Z,22.40
2019-05-13T15:04:58.571Z,23.00
2019-05-13T15:07:32.241Z,23.30
2019-05-13T15:10:04.277Z,23.40
2019-05-13T15:12:35.860Z,23.20
2019-05-13T15:15:07.598Z,23.10
2019-05-13T15:17:39.322Z,22.90
2019-05-13T15:20:12.758Z,22.00
2019-05-13T15:22:45.037Z,21.50
2019-05-13T15:25:17.333Z,21.90
2019-05-13T15:27:48.945Z,21.80
2019-05-13T15:30:21.926Z,22.70
2019-05-13T15:32:54.549Z,22.80
2019-05-13T15:35:26.108Z,22.20
2019-05-13T15:37:57.578Z,22.80
2019-05-13T15:40:31.222Z,22.90
2019-05-13T15:43:02.402Z,23.00
2019-05-13T15:45:34.147Z,22.20
2019-05-13T15:48:05.875Z,22.40
2019-05-13T15:50:36.693Z,22.50
2019-05-13T15:53:09.106Z,22.60
2019-05-13T15:55:40.452Z,23.00
2019-05-13T15:58:12.012Z,23.40
2019-05-13T16:00:43.524Z,23.60
2019-05-13T16:03:14.580Z,23.80
2019-05-13T16:05:46.661Z,23.40
2019-05-13T16:08:17.952Z,22.70
2019-05-13T16:10:49.289Z,22.50
2019-05-13T16:13:22.156Z,21.90
2019-05-13T16:15:54.038Z,21.80
2019-05-13T16:18:25.709Z,21.70
2019-05-13T16:20:57.376Z,21.40
2019-05-13T16:23:28.426Z,21.90
2019-05-13T16:26:01.647Z,22.00
2019-05-13T16:28:33.025Z,22.40
2019-05-13T16:31:04.058Z,22.90
2019-05-13T16:33:35.066Z,22.10
2019-05-13T16:36:07.772Z,22.30
2019-05-13T16:38:41.688Z,22.80
2019-05-13T16:41:12.667Z,23.00
2019-05-13T16:43:44.395Z,22.80
2019-05-13T16:46:16.383Z,22.70
2019-05-13T16:48:47.297Z,22.10
2019-05-13T16:51:21.431Z,22.40
2019-05-13T16:53:52.524Z,22.60
2019-05-13T16:56:27.922Z,22.30
2019-05-13T16:58:57.352Z,21.80
2019-05-13T17:01:29.002Z,21.70
2019-05-13T17:04:02.034Z,21.20
2019-05-13T17:06:34.138Z,21.60
2019-05-13T17:09:06.669Z,22.30
2019-05-13T17:11:38.318Z,21.90
2019-05-13T17:14:10.275Z,21.90
2019-05-13T17:16:41.993Z,22.20
2019-05-13T17:19:14.225Z,22.40
2019-05-13T17:21:46.259Z,22.80
2019-05-13T17:24:17.892Z,23.00
2019-05-13T17:26:49.121Z,22.70
2019-05-13T17:29:22.083Z,22.30
2019-05-13T17:31:53.774Z,22.40
2019-05-13T17:34:25.255Z,22.50
2019-05-13T17:36:56.379Z,22.50
2019-05-13T17:39:27.845Z,22.20
2019-05-13T17:42:01.268Z,21.50
2019-05-13T17:44:32.572Z,21.40
2019-05-13T17:47:03.829Z,21.10
2019-05-13T17:49:35.007Z,21.30
2019-05-13T17:52:06.600Z,21.20
2019-05-13T17:54:38.216Z,20.90
2019-05-13T17:57:09.349Z,21.20
2019-05-13T17:59:41.806Z,20.50
2019-05-13T18:02:14.069Z,19.90
2019-05-13T18:04:45.813Z,19.60
2019-05-13T18:07:17.608Z,19.90
2019-05-13T18:09:48.367Z,20.00
2019-05-13T18:12:22.139Z,19.40
2019-05-13T18:14:53.229Z,19.50
2019-05-13T18:17:24.276Z,19.50
2019-05-13T18:19:55.577Z,19.40
2019-05-13T18:22:27.179Z,19.00
2019-05-13T18:24:58.500Z,19.00
2019-05-13T18:27:32.207Z,19.00
2019-05-13T18:30:03.812Z,18.90
2019-05-13T18:32:35.561Z,18.60
2019-05-13T18:35:06.705Z,18.30
2019-05-13T18:37:38.012Z,17.80
2019-05-13T18:40:11.598Z,17.70
2019-05-13T18:42:43.409Z,17.80
2019-05-13T18:45:16.615Z,17.70
2019-05-13T18:47:47.841Z,17.30
2019-05-13T18:50:21.826Z,17.20
2019-05-13T18:52:53.346Z,17.10
2019-05-13T18:55:25.235Z,16.60
2019-05-13T18:57:57.123Z,16.50
2019-05-13T19:00:29.401Z,16.40
2019-05-13T19:03:01.348Z,16.20
2019-05-13T19:05:32.936Z,16.20
2019-05-13T19:08:04.350Z,16.10
2019-05-13T19:10:36.639Z,16.10
2019-05-13T19:13:08.551Z,16.10
2019-05-13T19:15:41.131Z,15.90
2019-05-13T19:18:13.038Z,15.80
2019-05-13T19:20:45.793Z,15.80
2019-05-13T19:23:18.293Z,15.70
2019-05-13T19:25:51.380Z,15.60
2019-05-13T19:28:23.915Z,15.50
2019-05-13T19:30:57.007Z,15.50
2019-05-13T19:33:31.707Z,15.50
2019-05-13T19:36:06.251Z,15.30
2019-05-13T19:38:42.391Z,15.10
2019-05-13T19:41:14.347Z,15.10
2019-05-13T19:43:46.764Z,15.00
2019-05-13T19:46:20.943Z,14.90
2019-05-13T19:48:53.496Z,14.80
2019-05-13T19:51:28.290Z,14.70
2019-05-13T19:54:02.420Z,14.60
2019-05-13T19:56:34.455Z,14.60
2019-05-13T19:59:07.744Z,14.60
2019-05-13T20:02:12.267Z,14.40
2019-05-13T20:04:51.863Z,14.30
2019-05-13T20:07:25.297Z,14.20
2019-05-13T20:10:02.791Z,14.10
2019-05-13T20:12:36.290Z,14.10
2019-05-13T20:15:08.481Z,14.00
2019-05-13T20:17:41.588Z,13.90
2019-05-13T20:20:16.028Z,13.90
2019-05-13T20:22:51.634Z,13.80
2019-05-13T20:25:24.181Z,13.70
2019-05-13T20:27:58.542Z,13.60
2019-05-13T20:30:32.403Z,13.50
2019-05-13T20:33:04.339Z,13.30
2019-05-13T20:35:35.885Z,13.30
2019-05-13T20:38:07.403Z,13.30
2019-05-13T20:40:41.345Z,13.10
2019-05-13T20:43:13.825Z,13.10
2019-05-13T20:45:45.821Z,13.10
2019-05-13T20:48:17.917Z,13.10
2019-05-13T20:50:48.949Z,13.00
2019-05-13T20:53:22.436Z,12.90
2019-05-13T20:55:56.762Z,12.80
2019-05-13T20:58:31.858Z,12.70
2019-05-13T21:01:05.076Z,12.70
2019-05-13T21:03:38.059Z,12.40
2019-05-13T21:06:11.768Z,12.30
2019-05-13T21:08:44.009Z,12.10
2019-05-13T21:11:17.850Z,12.00
2019-05-13T21:13:51.731Z,11.80
2019-05-13T21:16:24.826Z,11.70
2019-05-13T21:18:57.146Z,11.50
2019-05-13T21:21:28.221Z,11.70
2019-05-13T21:24:01.562Z,11.70
2019-05-13T21:26:32.902Z,11.70
2019-05-13T21:29:12.304Z,11.70
2019-05-13T21:31:43.688Z,11.70
2019-05-13T21:34:15.583Z,11.70
2019-05-13T21:36:47.597Z,11.60
2019-05-13T21:39:21.253Z,11.60
2019-05-13T21:41:51.992Z,11.60
2019-05-13T21:44:23.838Z,11.50
2019-05-13T21:46:55.543Z,11.50
2019-05-13T21:49:26.982Z,11.40
2019-05-13T21:51:57.962Z,11.40
2019-05-13T21:54:33.206Z,11.40
2019-05-13T21:57:02.354Z,11.20
2019-05-13T21:59:34.502Z,11.10
2019-05-13T22:02:05.719Z,11.00
2019-05-13T22:04:37.444Z,11.00
2019-05-13T22:07:09.088Z,10.80
2019-05-13T22:09:42.274Z,10.90
2019-05-13T22:12:13.602Z,10.90
2019-05-13T22:14:45.465Z,10.80
2019-05-13T22:17:16.783Z,10.70
2019-05-13T22:19:48.130Z,10.70
2019-05-13T22:22:21.918Z,10.70
2019-05-13T22:24:53.193Z,10.70
2019-05-13T22:27:25.061Z,10.60
2019-05-13T22:29:56.413Z,10.60
2019-05-13T22:32:28.358Z,10.50
2019-05-13T22:35:01.752Z,10.40
2019-05-13T22:37:33.172Z,10.30
2019-05-13T22:40:04.705Z,10.20
2019-05-13T22:42:36.398Z,10.20
2019-05-13T22:45:08.057Z,10.10
2019-05-13T22:47:41.708Z,10.00
2019-05-13T22:50:12.765Z,9.90
2019-05-13T22:52:44.081Z,10.00
2019-05-13T22:55:15.049Z,9.80
2019-05-13T22:57:46.338Z,10.00
2019-05-13T23:00:17.573Z,9.90
2019-05-13T23:02:49.211Z,9.80
2019-05-13T23:05:21.806Z,9.70
2019-05-13T23:07:53.407Z,9.60
2019-05-13T23:10:25.030Z,9.60
2019-05-13T23:12:56.657Z,9.50
2019-05-13T23:15:27.968Z,9.50
2019-05-13T23:18:01.246Z,9.40
2019-05-13T23:20:32.827Z,9.40
2019-05-13T23:23:03.527Z,9.30
2019-05-13T23:25:35.437Z,9.10
2019-05-13T23:28:06.983Z,9.10
2019-05-13T23:30:38.229Z,9.00
2019-05-13T23:33:11.581Z,9.00
2019-05-13T23:35:43.446Z,9.00
2019-05-13T23:38:14.740Z,9.00
2019-05-13T23:40:46.479Z,9.00
2019-05-13T23:43:17.763Z,9.00
2019-05-13T23:45:51.107Z,8.90
2019-05-13T23:48:23.100Z,8.80
2019-05-13T23:50:54.679Z,8.60
2019-05-13T23:53:25.966Z,8.50
2019-05-13T23:55:57.318Z,8.40
2019-05-13T23:58:28.941Z,8.40
